createdAt,value
2018-12-09T00:00:42.287Z,8.60
2018-12-09T00:03:11.011Z,8.40
2018-12-09T00:05:39.581Z,8.30
2018-12-09T00:08:08.123Z,8.20
2018-12-09T00:10:36.701Z,8.10
2018-12-09T00:13:05.301Z,8.00
2018-12-09T00:15:33.844Z,7.90
2018-12-09T00:18:02.411Z,7.90
2018-12-09T00:20:31.008Z,7.90
2018-12-09T00:22:59.587Z,7.90
2018-12-09T00:25:28.153Z,7.80
2018-12-09T00:27:56.741Z,7.80
2018-12-09T00:30:25.405Z,7.80
2018-12-09T00:32:53.995Z,7.80
2018-12-09T00:35:22.532Z,7.90
2018-12-09T00:37:51.075Z,7.90
2018-12-09T00:40:19.630Z,7.90
2018-12-09T00:42:48.194Z,8.00
2018-12-09T00:45:16.755Z,8.00
2018-12-09T00:47:45.312Z,8.10
2018-12-09T00:50:13.863Z,8.10
2018-12-09T00:52:42.441Z,8.10
2018-12-09T00:55:10.992Z,8.10
2018-12-09T00:57:39.622Z,8.10
2018-12-09T01:00:12.124Z,8.20
2018-12-09T01:02:40.841Z,8.20
2018-12-09T01:05:09.516Z,8.20
2018-12-09T01:07:38.099Z,8.20
2018-12-09T01:10:07.462Z,8.30
2018-12-09T01:12:36.047Z,8.30
2018-12-09T01:15:05.064Z,8.30
2018-12-09T01:17:33.943Z,8.40
2018-12-09T01:20:02.500Z,8.40
2018-12-09T01:22:31.043Z,8.40
2018-12-09T01:24:59.607Z,8.40
2018-12-09T01:27:28.180Z,8.40
2018-12-09T01:29:56.748Z,8.40
2018-12-09T01:32:25.632Z,8.40
2018-12-09T01:34:54.200Z,8.40
2018-12-09T01:37:22.784Z,8.40
2018-12-09T01:39:51.771Z,8.40
2018-12-09T01:42:20.315Z,8.40
2018-12-09T01:44:48.906Z,8.40
2018-12-09T01:47:17.456Z,8.40
2018-12-09T01:49:46.044Z,8.40
2018-12-09T01:52:14.660Z,8.40
2018-12-09T01:54:43.292Z,8.40
2018-12-09T01:57:11.878Z,8.50
2018-12-09T01:59:40.488Z,8.50
2018-12-09T02:02:09.211Z,8.50
2018-12-09T02:04:37.793Z,8.50
2018-12-09T02:07:06.609Z,8.40
2018-12-09T02:09:35.160Z,8.40
2018-12-09T02:12:03.871Z,8.40
2018-12-09T02:14:32.436Z,8.40
2018-12-09T02:17:01.037Z,8.40
2018-12-09T02:19:29.613Z,8.40
2018-12-09T02:21:58.195Z,8.40
2018-12-09T02:24:26.748Z,8.30
2018-12-09T02:26:55.354Z,8.30
2018-12-09T02:29:23.964Z,8.30
2018-12-09T02:31:54.522Z,8.30
2018-12-09T02:34:24.034Z,8.30
2018-12-09T02:36:52.746Z,8.30
2018-12-09T02:39:21.679Z,8.30
2018-12-09T02:41:52.014Z,8.30
2018-12-09T02:44:21.438Z,8.30
2018-12-09T02:46:50.038Z,8.30
2018-12-09T02:49:18.594Z,8.30
2018-12-09T02:51:47.161Z,8.30
2018-12-09T02:54:15.787Z,8.30
2018-12-09T02:56:44.342Z,8.30
2018-12-09T02:59:13.951Z,8.20
2018-12-09T03:01:42.698Z,8.20
2018-12-09T03:04:11.336Z,8.20
2018-12-09T03:06:40.320Z,8.10
2018-12-09T03:09:11.048Z,8.10
2018-12-09T03:11:39.597Z,8.10
2018-12-09T03:14:08.173Z,8.10
2018-12-09T03:16:36.712Z,8.10
2018-12-09T03:19:05.375Z,8.00
2018-12-09T03:21:34.093Z,7.90
2018-12-09T03:24:02.704Z,7.80
2018-12-09T03:26:31.537Z,7.80
2018-12-09T03:29:00.457Z,7.70
2018-12-09T03:31:29.080Z,7.80
2018-12-09T03:33:57.652Z,7.70
2018-12-09T03:36:26.239Z,7.60
2018-12-09T03:38:54.809Z,7.50
2018-12-09T03:41:23.404Z,7.50
2018-12-09T03:43:51.975Z,7.40
2018-12-09T03:46:20.567Z,7.40
2018-12-09T03:48:49.101Z,7.30
2018-12-09T03:51:18.217Z,7.20
2018-12-09T03:53:46.794Z,7.00
2018-12-09T03:56:15.373Z,6.90
2018-12-09T03:58:43.954Z,6.80
2018-12-09T04:01:12.559Z,6.80
2018-12-09T04:03:41.187Z,6.70
2018-12-09T04:06:09.777Z,6.70
2018-12-09T04:08:38.372Z,6.70
2018-12-09T04:11:06.960Z,6.60
2018-12-09T04:13:35.510Z,6.60
2018-12-09T04:16:04.112Z,6.60
2018-12-09T04:18:32.682Z,6.60
2018-12-09T04:21:01.225Z,6.60
2018-12-09T04:23:29.860Z,6.60
2018-12-09T04:25:58.717Z,6.60
2018-12-09T04:28:27.305Z,6.60
2018-12-09T04:30:55.869Z,6.70
2018-12-09T04:33:24.477Z,6.60
2018-12-09T04:35:53.077Z,6.60
2018-12-09T04:38:21.671Z,6.70
2018-12-09T04:40:50.286Z,6.60
2018-12-09T04:43:18.864Z,6.60
2018-12-09T04:45:47.416Z,6.60
2018-12-09T04:48:16.038Z,6.60
2018-12-09T04:50:44.604Z,6.60
2018-12-09T04:53:13.181Z,6.60
2018-12-09T04:55:41.764Z,6.60
2018-12-09T04:58:10.444Z,6.60
2018-12-09T05:00:56.129Z,6.60
2018-12-09T05:03:24.765Z,6.60
2018-12-09T05:05:53.373Z,6.60
2018-12-09T05:08:21.962Z,6.60
2018-12-09T05:10:50.543Z,6.60
2018-12-09T05:13:19.104Z,6.70
2018-12-09T05:15:47.691Z,6.70
2018-12-09T05:18:16.493Z,6.70
2018-12-09T05:20:45.624Z,6.70
2018-12-09T05:23:14.322Z,6.70
2018-12-09T05:25:43.050Z,6.70
2018-12-09T05:28:11.636Z,6.70
2018-12-09T05:30:40.256Z,6.70
2018-12-09T05:33:08.938Z,6.70
2018-12-09T05:35:37.505Z,6.70
2018-12-09T05:38:06.089Z,6.60
2018-12-09T05:40:34.896Z,6.60
2018-12-09T05:43:03.568Z,6.70
2018-12-09T05:45:32.149Z,6.70
2018-12-09T05:48:00.734Z,6.70
2018-12-09T05:50:29.356Z,6.70
2018-12-09T05:52:57.937Z,6.70
2018-12-09T05:55:26.484Z,6.70
2018-12-09T05:57:55.103Z,6.70
2018-12-09T06:00:23.664Z,6.70
2018-12-09T06:02:55.612Z,6.80
2018-12-09T06:05:24.196Z,6.70
2018-12-09T06:07:53.195Z,6.70
2018-12-09T06:10:21.801Z,6.70
2018-12-09T06:12:50.407Z,6.70
2018-12-09T06:15:18.984Z,6.70
2018-12-09T06:17:47.547Z,6.70
2018-12-09T06:20:16.147Z,6.60
2018-12-09T06:22:44.696Z,6.70
2018-12-09T06:25:13.298Z,6.70
2018-12-09T06:27:41.860Z,6.60
2018-12-09T06:30:11.733Z,6.70
2018-12-09T06:32:40.533Z,6.60
2018-12-09T06:35:09.593Z,6.60
2018-12-09T06:37:38.180Z,6.70
2018-12-09T06:40:07.179Z,6.70
2018-12-09T06:42:36.257Z,6.70
2018-12-09T06:45:06.140Z,6.70
2018-12-09T06:47:34.747Z,6.70
2018-12-09T06:50:04.435Z,6.70
2018-12-09T06:52:33.132Z,6.80
2018-12-09T06:55:01.709Z,6.80
2018-12-09T06:57:30.304Z,6.80
2018-12-09T06:59:58.903Z,6.80
2018-12-09T07:02:27.535Z,6.80
2018-12-09T07:04:56.189Z,6.80
2018-12-09T07:07:24.735Z,6.80
2018-12-09T07:09:53.310Z,6.80
2018-12-09T07:12:22.050Z,6.80
2018-12-09T07:14:50.646Z,6.80
2018-12-09T07:17:19.208Z,6.80
2018-12-09T07:19:47.752Z,6.90
2018-12-09T07:22:16.479Z,6.90
2018-12-09T07:24:45.060Z,7.00
2018-12-09T07:27:13.655Z,6.90
2018-12-09T07:29:42.176Z,7.00
2018-12-09T07:32:10.818Z,7.00
2018-12-09T07:34:39.385Z,7.00
2018-12-09T07:37:08.194Z,7.00
2018-12-09T07:39:36.743Z,7.00
2018-12-09T07:42:05.348Z,7.10
2018-12-09T07:44:33.883Z,7.10
2018-12-09T07:47:02.460Z,7.10
2018-12-09T07:49:31.033Z,7.10
2018-12-09T07:51:59.678Z,7.10
2018-12-09T07:54:28.233Z,7.10
2018-12-09T07:56:56.802Z,7.10
2018-12-09T07:59:25.391Z,7.10
2018-12-09T08:01:53.957Z,7.20
2018-12-09T08:04:22.591Z,7.20
2018-12-09T08:06:51.137Z,7.20
2018-12-09T08:09:19.698Z,7.30
2018-12-09T08:11:48.285Z,7.30
2018-12-09T08:14:22.321Z,7.40
2018-12-09T08:16:50.884Z,7.40
2018-12-09T08:19:19.474Z,7.40
2018-12-09T08:21:48.032Z,7.40
2018-12-09T08:24:16.600Z,7.40
2018-12-09T08:26:45.168Z,7.40
2018-12-09T08:29:13.720Z,7.50
2018-12-09T08:31:42.341Z,7.50
2018-12-09T08:34:10.911Z,7.50
2018-12-09T08:36:39.519Z,7.60
2018-12-09T08:39:08.068Z,7.50
2018-12-09T08:41:36.606Z,7.50
2018-12-09T08:44:05.274Z,7.50
2018-12-09T08:46:33.835Z,7.60
2018-12-09T08:49:02.394Z,7.60
2018-12-09T08:51:30.965Z,7.60
2018-12-09T08:53:59.555Z,7.70
2018-12-09T08:56:28.083Z,7.70
2018-12-09T08:58:56.637Z,7.70
2018-12-09T09:01:25.261Z,7.70
2018-12-09T09:03:54.213Z,7.70
2018-12-09T09:06:22.773Z,7.70
2018-12-09T09:08:51.336Z,7.70
2018-12-09T09:11:19.920Z,7.70
2018-12-09T09:13:48.494Z,7.70
2018-12-09T09:16:17.078Z,7.70
2018-12-09T09:18:45.640Z,7.70
2018-12-09T09:21:14.188Z,7.70
2018-12-09T09:23:42.739Z,7.70
2018-12-09T09:26:11.366Z,7.70
2018-12-09T09:28:39.989Z,7.70
2018-12-09T09:31:08.600Z,7.70
2018-12-09T09:33:37.307Z,7.70
2018-12-09T09:36:05.886Z,7.70
2018-12-09T09:38:34.633Z,7.70
2018-12-09T09:41:03.363Z,7.70
2018-12-09T09:43:31.908Z,7.60
2018-12-09T09:46:00.552Z,7.70
2018-12-09T09:48:29.149Z,7.70
2018-12-09T09:50:57.723Z,7.70
2018-12-09T09:53:26.946Z,7.70
2018-12-09T09:55:55.588Z,7.80
2018-12-09T09:58:24.175Z,7.90
2018-12-09T10:00:52.820Z,7.80
2018-12-09T10:03:25.853Z,7.80
2018-12-09T10:05:52.012Z,7.80
2018-12-09T10:08:20.712Z,7.80
2018-12-09T10:10:49.264Z,7.80
2018-12-09T10:13:17.821Z,7.90
2018-12-09T10:15:46.503Z,7.90
2018-12-09T10:18:15.069Z,7.90
2018-12-09T10:20:43.662Z,7.90
2018-12-09T10:23:12.329Z,7.90
2018-12-09T10:25:40.871Z,7.90
2018-12-09T10:28:09.434Z,7.90
2018-12-09T10:30:38.003Z,7.80
2018-12-09T10:33:06.724Z,7.80
2018-12-09T10:35:35.291Z,7.80
2018-12-09T10:38:04.021Z,7.80
2018-12-09T10:40:32.564Z,7.90
2018-12-09T10:43:01.132Z,7.80
2018-12-09T10:45:29.696Z,7.80
2018-12-09T10:47:58.367Z,7.80
2018-12-09T10:50:26.944Z,7.80
2018-12-09T10:52:55.526Z,7.80
2018-12-09T10:55:24.084Z,7.80
2018-12-09T10:57:52.684Z,7.70
2018-12-09T11:00:26.514Z,7.70
2018-12-09T11:02:55.093Z,7.80
2018-12-09T11:05:23.644Z,7.80
2018-12-09T11:07:52.210Z,7.80
2018-12-09T11:10:20.752Z,7.80
2018-12-09T11:12:49.325Z,7.80
2018-12-09T11:15:17.852Z,7.80
2018-12-09T11:17:46.420Z,7.90
2018-12-09T11:20:14.971Z,7.90
2018-12-09T11:22:43.619Z,8.00
2018-12-09T11:25:12.185Z,8.00
2018-12-09T11:27:40.757Z,8.10
2018-12-09T11:30:09.493Z,8.20
2018-12-09T11:32:38.040Z,8.20
2018-12-09T11:35:06.653Z,8.20
2018-12-09T11:37:35.176Z,8.20
2018-12-09T11:40:04.182Z,8.20
2018-12-09T11:42:32.749Z,8.20
2018-12-09T11:45:01.446Z,8.20
2018-12-09T11:47:30.349Z,8.20
2018-12-09T11:49:59.027Z,8.20
2018-12-09T11:52:27.828Z,8.20
2018-12-09T11:54:56.380Z,8.20
2018-12-09T11:57:24.997Z,8.20
2018-12-09T11:59:53.790Z,8.30
2018-12-09T12:02:22.656Z,8.30
2018-12-09T12:04:51.311Z,8.20
2018-12-09T12:07:19.841Z,8.30
2018-12-09T12:09:48.452Z,8.20
2018-12-09T12:12:16.985Z,8.10
2018-12-09T12:14:45.594Z,8.10
2018-12-09T12:17:14.115Z,8.00
2018-12-09T12:19:42.856Z,7.90
2018-12-09T12:22:11.417Z,7.90
2018-12-09T12:24:40.061Z,7.60
2018-12-09T12:27:08.637Z,7.40
2018-12-09T12:29:37.202Z,7.20
2018-12-09T12:32:05.789Z,7.00
2018-12-09T12:34:34.354Z,6.80
2018-12-09T12:37:02.944Z,6.70
2018-12-09T12:39:31.590Z,6.60
2018-12-09T12:42:00.149Z,6.50
2018-12-09T12:44:28.846Z,6.50
2018-12-09T12:46:57.486Z,6.40
2018-12-09T12:49:26.139Z,6.40
2018-12-09T12:51:54.719Z,6.40
2018-12-09T12:54:23.299Z,6.30
2018-12-09T12:56:51.895Z,6.40
2018-12-09T12:59:20.451Z,6.40
2018-12-09T13:01:49.324Z,6.40
2018-12-09T13:04:17.967Z,6.40
2018-12-09T13:06:46.568Z,6.40
2018-12-09T13:09:15.196Z,6.40
2018-12-09T13:11:43.749Z,6.40
2018-12-09T13:14:12.337Z,6.40
2018-12-09T13:16:41.000Z,6.40
2018-12-09T13:19:10.305Z,6.40
2018-12-09T13:21:38.933Z,6.50
2018-12-09T13:24:07.503Z,6.50
2018-12-09T13:26:36.087Z,6.50
2018-12-09T13:29:04.996Z,6.50
2018-12-09T13:31:33.554Z,6.60
2018-12-09T13:34:02.168Z,6.60
2018-12-09T13:36:30.813Z,6.60
2018-12-09T13:38:59.520Z,6.60
2018-12-09T13:41:29.054Z,6.60
2018-12-09T13:43:57.720Z,6.70
2018-12-09T13:46:26.322Z,6.70
2018-12-09T13:48:54.910Z,6.70
2018-12-09T13:51:23.536Z,6.80
2018-12-09T13:53:52.099Z,6.90
2018-12-09T13:56:20.692Z,6.90
2018-12-09T13:58:49.267Z,6.90
2018-12-09T14:01:18.081Z,6.90
2018-12-09T14:03:46.723Z,6.90
2018-12-09T14:06:15.309Z,7.00
2018-12-09T14:08:43.855Z,6.90
2018-12-09T14:11:12.468Z,6.90
2018-12-09T14:13:41.035Z,7.00
2018-12-09T14:16:09.717Z,7.00
2018-12-09T14:18:38.545Z,7.00
2018-12-09T14:21:07.195Z,7.00
2018-12-09T14:23:35.773Z,7.00
2018-12-09T14:26:04.389Z,7.00
2018-12-09T14:28:32.966Z,7.00
2018-12-09T14:31:01.731Z,7.00
2018-12-09T14:33:30.289Z,7.00
2018-12-09T14:35:59.228Z,7.10
2018-12-09T14:38:27.787Z,7.10
2018-12-09T14:40:56.765Z,7.10
2018-12-09T14:43:25.523Z,7.10
2018-12-09T14:45:54.638Z,7.10
2018-12-09T14:48:23.206Z,7.10
2018-12-09T14:50:51.787Z,7.10
2018-12-09T14:53:20.380Z,7.10
2018-12-09T14:55:49.006Z,7.10
2018-12-09T14:58:17.730Z,7.10
2018-12-09T15:00:46.408Z,7.10
2018-12-09T15:03:15.064Z,7.00
2018-12-09T15:05:44.464Z,7.00
2018-12-09T15:08:14.600Z,7.00
2018-12-09T15:10:43.544Z,7.00
2018-12-09T15:13:12.608Z,7.00
2018-12-09T15:15:41.333Z,7.00
2018-12-09T15:18:09.939Z,7.10
2018-12-09T15:20:38.724Z,7.00
2018-12-09T15:23:07.479Z,7.00
2018-12-09T15:25:36.991Z,7.00
2018-12-09T15:28:05.771Z,7.00
2018-12-09T15:30:34.402Z,7.10
2018-12-09T15:33:03.237Z,7.10
2018-12-09T15:35:31.902Z,7.10
2018-12-09T15:38:00.741Z,7.00
2018-12-09T15:40:29.541Z,7.00
2018-12-09T15:42:58.235Z,7.00
2018-12-09T15:45:26.837Z,7.00
2018-12-09T15:47:55.492Z,7.00
2018-12-09T15:50:24.093Z,6.90
2018-12-09T15:52:52.682Z,6.90
2018-12-09T15:55:25.866Z,6.80
2018-12-09T15:57:54.477Z,6.80
2018-12-09T16:00:25.211Z,6.70
2018-12-09T16:02:53.904Z,6.70
2018-12-09T16:05:22.624Z,6.70
2018-12-09T16:07:51.176Z,6.70
2018-12-09T16:10:19.764Z,6.70
2018-12-09T16:12:48.314Z,6.70
2018-12-09T16:15:16.942Z,6.70
2018-12-09T16:17:45.629Z,6.70
2018-12-09T16:20:14.197Z,6.80
2018-12-09T16:23:00.166Z,6.80
2018-12-09T16:25:28.817Z,6.80
2018-12-09T16:27:57.355Z,6.80
2018-12-09T16:30:25.915Z,6.80
2018-12-09T16:32:54.501Z,6.90
2018-12-09T16:35:23.069Z,6.80
2018-12-09T16:37:51.729Z,6.80
2018-12-09T16:40:20.368Z,6.80
2018-12-09T16:42:48.970Z,6.70
2018-12-09T16:45:17.500Z,6.70
2018-12-09T16:47:46.084Z,6.70
2018-12-09T16:50:14.643Z,6.70
2018-12-09T16:52:43.238Z,6.60
2018-12-09T16:55:11.842Z,6.60
2018-12-09T16:57:40.412Z,6.60
2018-12-09T17:00:09.114Z,6.60
2018-12-09T17:02:37.680Z,6.60
2018-12-09T17:05:06.461Z,6.50
2018-12-09T17:07:42.094Z,6.60
2018-12-09T17:10:06.376Z,6.60
2018-12-09T17:12:34.979Z,6.60
2018-12-09T17:15:03.673Z,6.60
2018-12-09T17:17:32.226Z,6.50
2018-12-09T17:20:06.245Z,6.50
2018-12-09T17:22:31.601Z,6.50
2018-12-09T17:25:00.292Z,6.50
2018-12-09T17:27:28.920Z,6.50
2018-12-09T17:29:57.481Z,6.50
2018-12-09T17:32:26.028Z,6.50
2018-12-09T17:34:54.620Z,6.50
2018-12-09T17:37:23.171Z,6.50
2018-12-09T17:39:51.745Z,6.50
2018-12-09T17:42:20.288Z,6.50
2018-12-09T17:44:48.911Z,6.50
2018-12-09T17:47:17.475Z,6.60
2018-12-09T17:49:46.039Z,6.60
2018-12-09T17:52:14.605Z,6.60
2018-12-09T17:54:43.181Z,6.60
2018-12-09T17:57:11.968Z,6.60
2018-12-09T17:59:40.509Z,6.50
2018-12-09T18:02:09.189Z,6.50
2018-12-09T18:04:37.872Z,6.50
2018-12-09T18:07:06.420Z,6.40
2018-12-09T18:09:35.066Z,6.40
2018-12-09T18:12:03.624Z,6.40
2018-12-09T18:14:32.191Z,6.40
2018-12-09T18:17:00.772Z,6.40
2018-12-09T18:19:29.355Z,6.40
2018-12-09T18:21:57.916Z,6.40
2018-12-09T18:24:26.747Z,6.40
2018-12-09T18:26:55.316Z,6.40
2018-12-09T18:29:23.854Z,6.40
2018-12-09T18:31:52.448Z,6.40
2018-12-09T18:34:21.864Z,6.40
2018-12-09T18:36:51.071Z,6.40
2018-12-09T18:39:20.056Z,6.40
2018-12-09T18:41:48.789Z,6.40
2018-12-09T18:44:17.388Z,6.40
2018-12-09T18:46:46.013Z,6.40
2018-12-09T18:49:14.565Z,6.40
2018-12-09T18:51:43.148Z,6.40
2018-12-09T18:54:11.768Z,6.40
2018-12-09T18:56:40.331Z,6.40
2018-12-09T18:59:08.897Z,6.30
2018-12-09T19:01:37.574Z,6.30
2018-12-09T19:04:06.122Z,6.30
2018-12-09T19:06:34.896Z,6.30
2018-12-09T19:09:04.863Z,6.20
2018-12-09T19:11:34.260Z,6.20
2018-12-09T19:14:02.957Z,6.10
2018-12-09T19:16:31.593Z,6.10
2018-12-09T19:19:00.263Z,6.10
2018-12-09T19:21:29.253Z,6.10
2018-12-09T19:23:57.880Z,6.10
2018-12-09T19:26:26.444Z,6.10
2018-12-09T19:28:55.079Z,6.10
2018-12-09T19:31:23.727Z,6.10
2018-12-09T19:33:52.294Z,6.10
2018-12-09T19:36:20.827Z,6.10
2018-12-09T19:38:49.389Z,6.10
2018-12-09T19:41:18.081Z,6.10
2018-12-09T19:43:46.647Z,6.10
2018-12-09T19:46:15.247Z,6.10
2018-12-09T19:48:43.832Z,6.00
2018-12-09T19:51:12.427Z,5.90
2018-12-09T19:53:40.975Z,5.90
2018-12-09T19:56:09.552Z,5.90
2018-12-09T19:58:38.100Z,5.90
2018-12-09T20:01:06.725Z,5.80
2018-12-09T20:03:35.251Z,5.80
2018-12-09T20:06:03.853Z,5.80
2018-12-09T20:08:32.427Z,5.70
2018-12-09T20:11:02.004Z,5.70
2018-12-09T20:13:30.540Z,5.70
2018-12-09T20:15:59.119Z,5.70
2018-12-09T20:18:27.724Z,5.70
2018-12-09T20:20:56.310Z,5.70
2018-12-09T20:23:24.952Z,5.70
2018-12-09T20:25:53.510Z,5.70
2018-12-09T20:28:22.080Z,5.70
2018-12-09T20:30:50.632Z,5.70
2018-12-09T20:33:19.212Z,5.60
2018-12-09T20:35:47.771Z,5.60
2018-12-09T20:38:16.358Z,5.50
2018-12-09T20:40:44.937Z,5.50
2018-12-09T20:43:13.508Z,5.50
2018-12-09T20:45:42.111Z,5.50
2018-12-09T20:48:13.642Z,5.50
2018-12-09T20:50:42.189Z,5.50
2018-12-09T20:53:10.751Z,5.50
2018-12-09T20:55:39.308Z,5.50
2018-12-09T20:58:07.876Z,5.50
2018-12-09T21:00:36.459Z,5.50
2018-12-09T21:03:05.671Z,5.50
2018-12-09T21:05:34.231Z,5.50
2018-12-09T21:08:02.767Z,5.50
2018-12-09T21:10:31.347Z,5.50
2018-12-09T21:13:00.337Z,5.60
2018-12-09T21:15:29.072Z,5.60
2018-12-09T21:17:57.611Z,5.60
2018-12-09T21:20:26.191Z,5.60
2018-12-09T21:22:54.784Z,5.60
2018-12-09T21:25:23.356Z,5.60
2018-12-09T21:27:51.976Z,5.60
2018-12-09T21:30:20.591Z,5.60
2018-12-09T21:32:49.137Z,5.60
2018-12-09T21:35:17.711Z,5.70
2018-12-09T21:37:46.262Z,5.60
2018-12-09T21:40:14.861Z,5.70
2018-12-09T21:42:43.528Z,5.70
2018-12-09T21:45:12.167Z,5.70
2018-12-09T21:47:40.711Z,5.70
2018-12-09T21:50:09.282Z,5.70
2018-12-09T21:52:37.804Z,5.70
2018-12-09T21:55:06.758Z,5.70
2018-12-09T21:57:35.267Z,5.70
2018-12-09T22:00:04.133Z,5.70
2018-12-09T22:02:32.719Z,5.70
2018-12-09T22:05:01.263Z,5.60
2018-12-09T22:07:29.888Z,5.60
2018-12-09T22:09:58.460Z,5.60
2018-12-09T22:12:27.038Z,5.60
2018-12-09T22:14:55.576Z,5.50
2018-12-09T22:17:24.135Z,5.50
2018-12-09T22:19:52.869Z,5.50
2018-12-09T22:22:21.423Z,5.50
2018-12-09T22:24:49.949Z,5.50
2018-12-09T22:27:18.512Z,5.50
2018-12-09T22:29:47.056Z,5.40
2018-12-09T22:32:15.604Z,5.40
2018-12-09T22:34:44.127Z,5.40
2018-12-09T22:37:12.765Z,5.40
2018-12-09T22:39:41.333Z,5.40
2018-12-09T22:42:09.870Z,5.40
2018-12-09T22:44:38.433Z,5.40
2018-12-09T22:47:06.986Z,5.40
2018-12-09T22:49:35.548Z,5.40
2018-12-09T22:52:04.149Z,5.40
2018-12-09T22:54:32.728Z,5.40
2018-12-09T22:57:01.280Z,5.40
2018-12-09T22:59:29.853Z,5.40
2018-12-09T23:02:03.765Z,5.40
2018-12-09T23:04:32.313Z,5.40
2018-12-09T23:07:06.220Z,5.40
2018-12-09T23:09:34.789Z,5.40
2018-12-09T23:12:03.351Z,5.40
2018-12-09T23:14:31.928Z,5.40
2018-12-09T23:17:00.488Z,5.40
2018-12-09T23:19:29.037Z,5.40
2018-12-09T23:21:57.584Z,5.40
2018-12-09T23:24:26.144Z,5.40
2018-12-09T23:26:54.687Z,5.40
2018-12-09T23:29:23.259Z,5.40
2018-12-09T23:31:51.788Z,5.40
2018-12-09T23:34:20.320Z,5.40
2018-12-09T23:36:48.868Z,5.40
2018-12-09T23:39:17.469Z,5.40
2018-12-09T23:41:46.012Z,5.40
2018-12-09T23:44:14.584Z,5.40
2018-12-09T23:46:43.212Z,5.40
2018-12-09T23:49:11.747Z,5.40
2018-12-09T23:51:40.297Z,5.40
2018-12-09T23:54:08.847Z,5.40
2018-12-09T23:56:37.390Z,5.30
2018-12-09T23:59:05.916Z,5.30
